LFRG METAR and TAF | Updated Today

LFRG METAR

Deauville-Saint-Gatien Airport

Observation time: 3 min. ago

LFRG 291130Z AUTO 06007KT 350V120 9999 SCT041 BKN048 BKN056 15/05 Q1018 TEMPO 01015G25KT

Need help? Read our tutorial on how to read METARs or read the parsed version below.

Deauville-Saint-Gatien Airport (LFRG) METAR

  • Weather conditions on Sun, 29 May 2022 11:30:00 +0000 (3 min. ago):
  • Present conditions: Dry
  • Clouds: Scattered at 1250 meters; broken sky at 1463 meters; broken sky at 1707 meters
  • Visibility: Greater than 10 km
  • Wind: 60 degrees at 7 knots
  • Temperature: 15 celsius
  • Dew point: 5 celsius
  • Pressure: 1018 millibars
  • Remarks: None


Useful to know...

LFRG TAF

Deauville-Saint-Gatien Airport

TAF LFRG 290800Z 2909/2918 03010KT 9999 SCT030 PROB40 TEMPO 2912/2917 01015G25KT
Observation time: 3:33 hr. ago
Need help? Read our tutorial on how to read TAFs or read the parsed version below.

Parsed version of TAF for Deauville-Saint-Gatien Airport (LFRG)

  • From 29 May at 09:00 UTC, to day 29 of the month at 18:00 UTC
  • Clouds: Scattered at 914 meters
  • Visibility: Greater than 10 km
  • Wind: 30 degrees at 10
  • Expected to arise temporarily, from 29 May at 12:00 UTC, to day 29 of the month at 17:00 UTC
    Probability of 40%
  • Wind: 10 degrees at 15